Terminal Aerodrome Forecast
Issued by NWS Rapid City, SD

Home | Current Version | Previous Version | Graphics & Text | Print | Product List | Glossary On
Versions: 1 2 3 4 5 6 7 8 9 10 11 12 13 14 15 16 17 18 19 20 21 22 23 24 25 26 27 28 29
387
FTUS43 KUNR 260520
TAFRAP
TAF
KRAP 260520Z 2606/2706 03008KT P6SM OVC024
     FM260900 03009KT P6SM OVC012
     FM261100 02011KT P6SM -SHRA OVC009
     FM261300 05013KT 2SM -RASN BR OVC005
     FM261700 02014KT 4SM -RA BR OVC011
     FM262300 35017KT P6SM -RA OVC025
     FM270300 35018KT 3SM -RA BR OVC007=

USA.gov is the U.S. government's official web portal to all federal, state and local government web resources and services.